createdAt,value
2023-04-16T00:01:01.172Z,65.20
2023-04-16T00:03:29.421Z,66.53
2023-04-16T00:05:57.634Z,66.93
2023-04-16T00:08:25.719Z,63.47
2023-04-16T00:10:54.179Z,50.67
2023-04-16T00:13:22.594Z,53.37
2023-04-16T00:15:51.977Z,64.47
2023-04-16T00:18:21.280Z,71.07
2023-04-16T00:20:50.574Z,52.67
2023-04-16T00:23:18.456Z,65.57
2023-04-16T00:25:46.641Z,60.63
2023-04-16T00:28:14.555Z,62.40
2023-04-16T00:30:42.653Z,62.77
2023-04-16T00:33:12.103Z,58.17
2023-04-16T00:35:40.365Z,53.13
2023-04-16T00:38:08.306Z,63.20
2023-04-16T00:40:36.394Z,52.50
2023-04-16T00:43:04.778Z,58.07
2023-04-16T00:45:33.136Z,46.63
2023-04-16T00:48:01.793Z,45.60
2023-04-16T00:50:31.421Z,53.60
2023-04-16T00:52:59.490Z,46.10
2023-04-16T00:55:27.793Z,40.27
2023-04-16T00:57:56.070Z,42.87
2023-04-16T01:00:24.244Z,36.90
2023-04-16T01:02:53.872Z,38.13
2023-04-16T01:05:22.161Z,40.97
2023-04-16T01:07:52.452Z,50.67
2023-04-16T01:10:20.562Z,48.20
2023-04-16T01:12:48.356Z,47.83
2023-04-16T01:15:16.411Z,43.33
2023-04-16T01:17:46.312Z,53.67
2023-04-16T01:20:14.915Z,44.03
2023-04-16T01:22:44.167Z,54.73
2023-04-16T01:25:16.616Z,54.87
2023-04-16T01:27:44.908Z,42.73
2023-04-16T01:30:12.998Z,47.00
2023-04-16T01:32:51.434Z,48.97
2023-04-16T01:35:20.813Z,48.23
2023-04-16T01:37:52.118Z,45.70
2023-04-16T01:40:20.294Z,52.50
2023-04-16T01:42:48.087Z,52.17
2023-04-16T01:45:16.008Z,46.80
2023-04-16T01:47:44.524Z,48.83
2023-04-16T01:50:12.561Z,45.67
2023-04-16T01:52:40.645Z,48.83
2023-04-16T01:55:10.791Z,55.13
2023-04-16T01:57:39.027Z,51.00
2023-04-16T02:00:09.161Z,48.00
2023-04-16T02:02:47.104Z,47.87
2023-04-16T02:05:21.733Z,39.35
2023-04-16T02:07:49.759Z,50.07
2023-04-16T02:10:19.338Z,46.23
2023-04-16T02:12:47.860Z,55.33
2023-04-16T02:15:16.362Z,50.57
2023-04-16T02:17:46.519Z,52.63
2023-04-16T02:20:14.706Z,52.97
2023-04-16T02:22:49.770Z,53.08
2023-04-16T02:25:23.024Z,41.77
2023-04-16T02:27:53.339Z,51.87
2023-04-16T02:30:28.512Z,44.70
2023-04-16T02:32:56.473Z,52.83
2023-04-16T02:35:24.388Z,55.23
2023-04-16T02:37:52.333Z,51.90
2023-04-16T02:40:20.160Z,54.17
2023-04-16T02:42:51.142Z,48.97
2023-04-16T02:45:19.683Z,39.03
2023-04-16T02:47:48.310Z,46.87
2023-04-16T02:50:16.981Z,48.03
2023-04-16T02:52:44.975Z,56.60
2023-04-16T02:55:12.825Z,54.70
2023-04-16T02:57:42.314Z,49.00
2023-04-16T03:00:12.985Z,56.57
2023-04-16T03:02:41.462Z,48.70
2023-04-16T03:05:10.370Z,42.33
2023-04-16T03:07:40.795Z,51.23
2023-04-16T03:10:09.298Z,59.27
2023-04-16T03:12:37.416Z,55.23
2023-04-16T03:15:09.240Z,57.07
2023-04-16T03:17:38.489Z,47.33
2023-04-16T03:20:09.176Z,46.53
2023-04-16T03:22:37.303Z,48.57
2023-04-16T03:25:06.697Z,49.73
2023-04-16T03:27:38.516Z,54.67
2023-04-16T03:30:08.619Z,47.90
2023-04-16T03:32:38.749Z,45.40
2023-04-16T03:35:09.165Z,52.10
2023-04-16T03:37:39.641Z,34.33
2023-04-16T03:40:08.655Z,42.93
2023-04-16T03:42:36.617Z,51.90
2023-04-16T03:45:09.535Z,48.37
2023-04-16T03:47:40.595Z,48.27
2023-04-16T03:50:11.629Z,54.80
2023-04-16T03:52:39.838Z,46.37
2023-04-16T03:55:11.244Z,47.40
2023-04-16T03:57:39.593Z,41.97
2023-04-16T04:00:12.677Z,25.23
2023-04-16T04:02:53.976Z,41.97
2023-04-16T04:05:22.213Z,42.67
2023-04-16T04:07:50.920Z,46.80
2023-04-16T04:10:18.771Z,36.57
2023-04-16T04:12:46.881Z,46.07
2023-04-16T04:15:15.378Z,41.73
2023-04-16T04:17:43.949Z,40.90
2023-04-16T04:20:13.636Z,46.27
2023-04-16T04:22:45.334Z,38.70
2023-04-16T04:25:14.350Z,42.73
2023-04-16T04:27:42.293Z,38.60
2023-04-16T04:30:11.810Z,41.10
2023-04-16T04:32:41.619Z,24.70
2023-04-16T04:35:10.366Z,40.13
2023-04-16T04:37:42.878Z,32.67
2023-04-16T04:40:20.421Z,31.87
2023-04-16T04:42:48.496Z,42.73
2023-04-16T04:45:16.866Z,37.10
2023-04-16T04:47:46.631Z,38.33
2023-04-16T04:50:15.529Z,29.50
2023-04-16T04:52:44.779Z,31.80
2023-04-16T04:55:14.102Z,47.93
2023-04-16T04:57:42.653Z,43.23
2023-04-16T05:00:11.834Z,41.97
2023-04-16T05:02:51.121Z,41.57
2023-04-16T05:05:19.255Z,41.70
2023-04-16T05:07:50.674Z,39.87
2023-04-16T05:10:18.702Z,43.47
2023-04-16T05:12:48.913Z,43.83
2023-04-16T05:15:17.140Z,40.03
2023-04-16T05:17:45.527Z,44.07
2023-04-16T05:20:14.751Z,41.20
2023-04-16T05:22:42.667Z,25.83
2023-04-16T05:25:11.938Z,36.13
2023-04-16T05:27:40.643Z,41.47
2023-04-16T05:30:09.691Z,40.37
2023-04-16T05:32:40.618Z,29.67
2023-04-16T05:35:09.985Z,40.83
2023-04-16T05:37:43.514Z,45.90
2023-04-16T05:40:14.705Z,44.33
2023-04-16T05:42:42.869Z,44.60
2023-04-16T05:45:11.413Z,42.90
2023-04-16T05:47:39.631Z,31.80
2023-04-16T05:50:08.316Z,27.17
2023-04-16T05:52:36.437Z,40.97
2023-04-16T05:55:04.945Z,42.73
2023-04-16T05:57:40.238Z,31.57
2023-04-16T06:00:10.980Z,36.53
2023-04-16T06:02:41.778Z,33.73
2023-04-16T06:05:10.024Z,28.50
2023-04-16T06:07:38.063Z,33.90
2023-04-16T06:10:07.256Z,36.13
2023-04-16T06:12:35.505Z,34.00
2023-04-16T06:15:07.354Z,38.10
2023-04-16T06:17:35.520Z,25.03
2023-04-16T06:20:03.646Z,23.87
2023-04-16T06:22:31.537Z,26.00
2023-04-16T06:24:59.286Z,39.10
2023-04-16T06:27:28.023Z,41.87
2023-04-16T06:29:58.266Z,40.77
2023-04-16T06:32:27.604Z,45.30
2023-04-16T06:34:56.375Z,40.60
2023-04-16T06:37:24.358Z,40.57
2023-04-16T06:39:52.299Z,38.87
2023-04-16T06:42:20.709Z,44.73
2023-04-16T06:44:48.693Z,40.13
2023-04-16T06:47:16.656Z,43.30
2023-04-16T06:49:46.960Z,36.27
2023-04-16T06:52:14.857Z,39.93
2023-04-16T06:54:42.742Z,36.40
2023-04-16T06:57:11.178Z,35.30
2023-04-16T06:59:39.504Z,32.57
2023-04-16T07:02:10.166Z,28.93
2023-04-16T07:04:38.125Z,30.10
2023-04-16T07:07:08.912Z,37.40
2023-04-16T07:09:36.916Z,31.13
2023-04-16T07:12:07.106Z,37.50
2023-04-16T07:14:35.158Z,38.97
2023-04-16T07:17:03.015Z,36.00
2023-04-16T07:19:32.748Z,29.10
2023-04-16T07:22:00.696Z,38.80
2023-04-16T07:24:30.597Z,37.17
2023-04-16T07:26:58.714Z,38.50
2023-04-16T07:29:26.504Z,40.77
2023-04-16T07:31:54.440Z,32.50
2023-04-16T07:34:22.373Z,38.43
2023-04-16T07:36:50.336Z,33.77
2023-04-16T07:39:18.221Z,36.47
2023-04-16T07:41:47.769Z,37.60
2023-04-16T07:44:15.646Z,34.20
2023-04-16T07:46:47.350Z,34.47
2023-04-16T07:49:15.942Z,35.80
2023-04-16T07:51:43.983Z,39.17
2023-04-16T07:54:11.895Z,30.93
2023-04-16T07:56:40.050Z,23.50
2023-04-16T07:59:22.139Z,37.37
2023-04-16T08:01:54.152Z,37.30
2023-04-16T08:04:25.887Z,40.47
2023-04-16T08:06:54.541Z,36.07
2023-04-16T08:09:27.104Z,33.77
2023-04-16T08:11:55.361Z,26.60
2023-04-16T08:14:24.516Z,35.57
2023-04-16T08:16:52.445Z,35.70
2023-04-16T08:19:20.461Z,31.83
2023-04-16T08:21:48.620Z,27.30
2023-04-16T08:24:19.700Z,31.60
2023-04-16T08:26:47.567Z,37.00
2023-04-16T08:29:15.520Z,34.50
2023-04-16T08:31:45.153Z,34.10
2023-04-16T08:34:13.804Z,38.43
2023-04-16T08:36:47.273Z,37.33
2023-04-16T08:39:15.358Z,37.23
2023-04-16T08:41:46.854Z,32.00
2023-04-16T08:44:25.607Z,35.87
2023-04-16T08:46:58.194Z,36.87
2023-04-16T08:49:27.909Z,30.73
2023-04-16T08:51:58.506Z,37.23
2023-04-16T08:54:37.979Z,37.07
2023-04-16T08:57:10.912Z,31.20
2023-04-16T08:59:48.017Z,32.57
2023-04-16T09:02:19.324Z,30.47
2023-04-16T09:04:51.421Z,32.10
2023-04-16T09:07:21.815Z,30.60
2023-04-16T09:09:52.761Z,34.73
2023-04-16T09:12:24.115Z,34.60
2023-04-16T09:14:53.322Z,29.10
2023-04-16T09:17:23.048Z,29.03
2023-04-16T09:19:54.564Z,26.47
2023-04-16T09:22:22.400Z,30.15
2023-04-16T09:24:51.216Z,25.17
2023-04-16T09:27:20.495Z,22.47
2023-04-16T09:29:51.293Z,24.57
2023-04-16T09:32:27.737Z,28.23
2023-04-16T09:34:58.095Z,27.02
2023-04-16T09:37:29.921Z,25.30
2023-04-16T09:40:00.069Z,22.38
2023-04-16T09:42:32.336Z,23.92
2023-04-16T09:45:03.360Z,24.58
2023-04-16T09:47:42.802Z,21.85
2023-04-16T09:50:18.235Z,22.58
2023-04-16T09:52:50.753Z,25.60
2023-04-16T09:55:23.877Z,25.52
2023-04-16T09:57:59.878Z,21.00
2023-04-16T10:00:32.530Z,18.77
2023-04-16T10:03:07.189Z,18.67
2023-04-16T10:05:35.747Z,22.92
2023-04-16T10:08:12.318Z,22.95
2023-04-16T10:10:42.092Z,19.77
2023-04-16T10:13:10.886Z,21.52
2023-04-16T10:15:40.651Z,19.02
2023-04-16T10:18:10.370Z,17.75
2023-04-16T10:20:38.745Z,16.90
2023-04-16T10:23:06.938Z,17.88
2023-04-16T10:25:35.644Z,19.40
2023-04-16T10:28:03.791Z,16.67
2023-04-16T10:30:32.019Z,20.27
2023-04-16T10:33:03.795Z,18.70
2023-04-16T10:35:34.591Z,20.08
2023-04-16T10:38:23.170Z,17.48
2023-04-16T10:40:58.547Z,19.02
2023-04-16T10:43:27.236Z,18.95
2023-04-16T10:45:55.957Z,16.83
2023-04-16T10:48:27.425Z,15.82
2023-04-16T10:50:58.619Z,17.05
2023-04-16T10:53:28.097Z,16.33
2023-04-16T10:56:13.052Z,16.23
2023-04-16T10:58:42.018Z,16.10
2023-04-16T11:01:14.357Z,18.60
2023-04-16T11:03:47.014Z,14.02
2023-04-16T11:06:18.471Z,13.75
2023-04-16T11:08:54.461Z,15.75
2023-04-16T11:11:39.646Z,15.25
2023-04-16T11:14:11.771Z,14.65
2023-04-16T11:16:41.402Z,13.52
2023-04-16T11:19:17.587Z,15.98
2023-04-16T11:21:47.333Z,15.60
2023-04-16T11:24:15.280Z,14.18
2023-04-16T11:26:43.208Z,16.40
2023-04-16T11:29:17.657Z,17.63
2023-04-16T11:31:53.713Z,16.33
2023-04-16T11:34:21.830Z,16.00
2023-04-16T11:36:52.426Z,16.38
2023-04-16T11:39:20.612Z,14.85
2023-04-16T11:41:52.297Z,17.42
2023-04-16T11:44:22.832Z,15.00
2023-04-16T11:46:51.827Z,18.27
2023-04-16T11:49:28.197Z,15.07
2023-04-16T11:51:58.199Z,15.20
2023-04-16T11:54:26.503Z,16.65
2023-04-16T11:56:54.709Z,16.50
2023-04-16T11:59:23.956Z,17.92
2023-04-16T12:01:56.022Z,15.85
2023-04-16T12:04:26.597Z,15.98
2023-04-16T12:07:10.908Z,21.38
2023-04-16T12:09:42.719Z,18.20
2023-04-16T12:12:33.063Z,18.05
2023-04-16T12:15:04.178Z,21.92
2023-04-16T12:17:34.804Z,17.73
2023-04-16T12:20:08.335Z,17.52
2023-04-16T12:22:40.577Z,19.35
2023-04-16T12:25:12.830Z,17.00
2023-04-16T12:27:46.966Z,19.13
2023-04-16T12:30:16.752Z,19.42
2023-04-16T12:32:49.726Z,17.25
2023-04-16T12:35:31.477Z,21.85
2023-04-16T12:38:03.473Z,19.42
2023-04-16T12:40:31.644Z,17.02
2023-04-16T12:42:59.449Z,17.98
2023-04-16T12:45:27.586Z,15.93
2023-04-16T12:47:55.905Z,16.77
2023-04-16T12:50:25.523Z,16.80
2023-04-16T12:52:53.469Z,15.75
2023-04-16T12:55:23.771Z,17.85
2023-04-16T12:57:54.763Z,17.13
2023-04-16T13:00:23.087Z,17.23
2023-04-16T13:02:50.975Z,15.30
2023-04-16T13:05:19.387Z,13.80
2023-04-16T13:07:49.305Z,13.75
2023-04-16T13:10:17.416Z,15.23
2023-04-16T13:12:46.889Z,14.73
2023-04-16T13:15:14.823Z,18.73
2023-04-16T13:17:42.825Z,13.48
2023-04-16T13:20:11.749Z,13.75
2023-04-16T13:22:39.781Z,15.00
2023-04-16T13:25:09.491Z,14.27
2023-04-16T13:27:39.788Z,14.10
2023-04-16T13:30:11.008Z,12.90
2023-04-16T13:32:41.068Z,15.02
2023-04-16T13:35:10.848Z,16.35
2023-04-16T13:37:40.588Z,15.45
2023-04-16T13:40:09.680Z,15.25
2023-04-16T13:42:37.564Z,12.40
2023-04-16T13:45:06.695Z,14.80
2023-04-16T13:47:36.770Z,12.35
2023-04-16T13:50:06.111Z,13.65
2023-04-16T13:52:34.073Z,13.63
2023-04-16T13:55:01.881Z,13.07
2023-04-16T13:57:29.950Z,15.23
2023-04-16T13:59:57.959Z,13.60
2023-04-16T14:02:26.622Z,12.52
2023-04-16T14:04:56.052Z,13.73
2023-04-16T14:07:27.113Z,10.48
2023-04-16T14:09:55.102Z,10.80
2023-04-16T14:12:23.043Z,10.80
2023-04-16T14:14:50.848Z,13.25
2023-04-16T14:17:19.356Z,11.18
2023-04-16T14:19:47.702Z,12.90
2023-04-16T14:22:18.004Z,13.13
2023-04-16T14:24:46.002Z,14.52
2023-04-16T14:27:13.916Z,12.48
2023-04-16T14:29:42.548Z,11.50
2023-04-16T14:32:10.368Z,11.20
2023-04-16T14:34:38.208Z,13.23
2023-04-16T14:37:07.788Z,13.27
2023-04-16T14:39:41.132Z,12.23
2023-04-16T14:42:09.130Z,12.30
2023-04-16T14:44:37.558Z,12.02
2023-04-16T14:47:05.958Z,11.07
2023-04-16T14:49:34.500Z,9.15
2023-04-16T14:52:03.808Z,12.98
2023-04-16T14:54:33.182Z,13.45
2023-04-16T14:57:02.751Z,14.27
2023-04-16T14:59:32.430Z,11.93
2023-04-16T15:02:00.490Z,13.75
2023-04-16T15:04:32.007Z,15.32
2023-04-16T15:07:00.660Z,16.65
2023-04-16T15:09:28.762Z,16.25
2023-04-16T15:11:58.132Z,13.00
2023-04-16T15:14:27.594Z,13.82
2023-04-16T15:16:55.507Z,15.15
2023-04-16T15:19:23.688Z,15.65
2023-04-16T15:21:51.639Z,15.10
2023-04-16T15:24:22.480Z,15.80
2023-04-16T15:26:50.360Z,16.05
2023-04-16T15:29:18.163Z,16.88
2023-04-16T15:31:47.822Z,15.98
2023-04-16T15:34:15.713Z,12.10
2023-04-16T15:36:43.581Z,16.33
2023-04-16T15:39:11.683Z,15.50
2023-04-16T15:41:53.721Z,13.25
2023-04-16T15:44:28.229Z,12.25
2023-04-16T15:46:57.298Z,12.80
2023-04-16T15:49:25.345Z,17.38
2023-04-16T15:51:53.606Z,19.75
2023-04-16T15:54:21.626Z,16.77
2023-04-16T15:56:50.248Z,15.80
2023-04-16T15:59:18.204Z,18.98
2023-04-16T16:01:46.292Z,15.73
2023-04-16T16:04:16.028Z,15.90
2023-04-16T16:06:45.475Z,15.95
2023-04-16T16:09:13.435Z,17.67
2023-04-16T16:11:42.040Z,15.60
2023-04-16T16:14:09.870Z,16.20
2023-04-16T16:16:37.941Z,14.32
2023-04-16T16:19:05.902Z,13.50
2023-04-16T16:21:35.418Z,14.23
2023-04-16T16:24:03.588Z,14.95
2023-04-16T16:26:31.953Z,13.70
2023-04-16T16:29:01.542Z,13.77
2023-04-16T16:31:29.497Z,17.17
2023-04-16T16:33:57.438Z,12.63
2023-04-16T16:36:26.153Z,14.20
2023-04-16T16:38:55.502Z,16.48
2023-04-16T16:41:23.618Z,15.38
2023-04-16T16:43:56.103Z,14.57
2023-04-16T16:46:24.638Z,15.23
2023-04-16T16:48:52.435Z,16.48
2023-04-16T16:51:20.667Z,15.68
2023-04-16T16:53:48.760Z,14.82
2023-04-16T16:56:18.268Z,14.10
2023-04-16T16:58:46.444Z,15.60
2023-04-16T17:01:14.704Z,17.73
2023-04-16T17:03:42.649Z,14.68
2023-04-16T17:06:11.162Z,14.35
2023-04-16T17:08:39.221Z,14.98
2023-04-16T17:11:06.976Z,15.98
2023-04-16T17:13:36.982Z,18.05
2023-04-16T17:16:05.632Z,16.73
2023-04-16T17:18:34.103Z,16.17
2023-04-16T17:21:02.264Z,16.48
2023-04-16T17:23:32.640Z,17.35
2023-04-16T17:26:00.998Z,15.55
2023-04-16T17:28:28.892Z,16.33
2023-04-16T17:30:58.237Z,15.55
2023-04-16T17:33:26.162Z,15.52
2023-04-16T17:35:54.274Z,17.15
2023-04-16T17:38:22.021Z,17.50
2023-04-16T17:40:49.976Z,17.67
2023-04-16T17:43:18.037Z,16.77
2023-04-16T17:45:45.919Z,16.40
2023-04-16T17:48:15.108Z,17.73
2023-04-16T17:50:42.968Z,16.23
2023-04-16T17:53:10.901Z,17.77
2023-04-16T17:55:39.360Z,18.73
2023-04-16T17:58:07.203Z,16.75
2023-04-16T18:00:35.065Z,16.43
2023-04-16T18:03:03.001Z,14.57
2023-04-16T18:05:32.651Z,17.75
2023-04-16T18:08:00.501Z,16.25
2023-04-16T18:10:31.536Z,16.60
2023-04-16T18:12:59.501Z,16.00
2023-04-16T18:15:27.306Z,18.17
2023-04-16T18:17:55.696Z,15.43
2023-04-16T18:20:23.594Z,17.00
2023-04-16T18:22:53.129Z,13.37
2023-04-16T18:25:32.328Z,15.23
2023-04-16T18:28:05.117Z,16.57
2023-04-16T18:30:33.767Z,15.33
2023-04-16T18:35:32.803Z,15.07
2023-04-16T18:38:02.302Z,16.93
2023-04-16T18:40:34.479Z,18.13
2023-04-16T18:43:02.640Z,18.57
2023-04-16T18:45:30.859Z,18.90
2023-04-16T18:47:59.179Z,16.47
2023-04-16T18:50:27.313Z,18.47
2023-04-16T18:52:55.065Z,17.23
2023-04-16T18:55:24.703Z,17.30
2023-04-16T18:57:53.121Z,16.43
2023-04-16T19:00:21.171Z,16.97
2023-04-16T19:02:49.107Z,17.80
2023-04-16T19:05:21.056Z,18.43
2023-04-16T19:07:49.100Z,17.87
2023-04-16T19:10:16.921Z,15.27
2023-04-16T19:12:46.287Z,16.87
2023-04-16T19:15:14.775Z,15.10
2023-04-16T19:17:42.866Z,18.30
2023-04-16T19:20:11.730Z,18.80
2023-04-16T19:22:39.713Z,21.93
2023-04-16T19:25:09.115Z,19.70
2023-04-16T19:27:37.213Z,17.83
2023-04-16T19:30:08.580Z,24.30
2023-04-16T19:32:36.643Z,15.70
2023-04-16T19:35:05.587Z,19.67
2023-04-16T19:37:33.543Z,19.97
2023-04-16T19:40:02.290Z,12.90
2023-04-16T19:42:31.159Z,18.03
2023-04-16T19:44:59.694Z,15.97
2023-04-16T19:47:28.944Z,19.70
2023-04-16T19:49:57.046Z,20.73
2023-04-16T19:52:24.910Z,20.03
2023-04-16T19:54:53.113Z,20.30
2023-04-16T19:57:20.946Z,18.33
2023-04-16T19:59:48.738Z,18.50
2023-04-16T20:02:16.637Z,18.90
2023-04-16T20:04:48.257Z,19.27
2023-04-16T20:07:16.206Z,20.17
2023-04-16T20:09:44.025Z,20.03
2023-04-16T20:12:11.830Z,20.20
2023-04-16T20:14:40.333Z,19.63
2023-04-16T20:17:09.913Z,19.70
2023-04-16T20:19:42.141Z,20.90
2023-04-16T20:22:11.358Z,19.13
2023-04-16T20:24:39.126Z,14.33
2023-04-16T20:27:07.044Z,16.37
2023-04-16T20:29:35.051Z,21.43
2023-04-16T20:32:02.959Z,25.07
2023-04-16T20:34:30.999Z,21.27
2023-04-16T20:36:58.798Z,17.33
2023-04-16T20:39:28.066Z,19.07
2023-04-16T20:41:58.700Z,21.20
2023-04-16T20:44:33.040Z,23.57
2023-04-16T20:47:00.880Z,22.30
2023-04-16T20:49:30.130Z,22.27
2023-04-16T20:51:58.210Z,27.37
2023-04-16T20:54:26.163Z,20.17
2023-04-16T20:56:56.064Z,21.30
2023-04-16T20:59:24.673Z,20.77
2023-04-16T21:01:52.759Z,22.00
2023-04-16T21:04:20.725Z,14.47
2023-04-16T21:06:49.121Z,22.87
2023-04-16T21:09:16.910Z,20.63
2023-04-16T21:11:44.706Z,22.50
2023-04-16T21:14:14.012Z,20.93
2023-04-16T21:16:42.001Z,16.43
2023-04-16T21:19:10.049Z,18.77
2023-04-16T21:21:39.521Z,21.10
2023-04-16T21:24:08.248Z,24.47
2023-04-16T21:26:36.026Z,21.10
2023-04-16T21:29:04.166Z,19.40
2023-04-16T21:31:33.603Z,19.30
2023-04-16T21:34:01.444Z,17.07
2023-04-16T21:36:31.938Z,19.80
2023-04-16T21:39:00.076Z,24.13
2023-04-16T21:41:28.296Z,21.90
2023-04-16T21:43:56.871Z,22.67
2023-04-16T21:46:26.305Z,19.07
2023-04-16T21:48:55.616Z,21.60
2023-04-16T21:51:29.224Z,22.50
2023-04-16T21:53:58.095Z,22.10
2023-04-16T21:56:26.034Z,21.97
2023-04-16T21:58:53.926Z,22.03
2023-04-16T22:01:21.986Z,17.83
2023-04-16T22:03:52.009Z,18.60
2023-04-16T22:06:21.644Z,14.47
2023-04-16T22:08:49.892Z,22.50
2023-04-16T22:11:17.983Z,20.13
2023-04-16T22:13:47.892Z,20.23
2023-04-16T22:16:16.124Z,19.80
2023-04-16T22:18:45.098Z,22.67
2023-04-16T22:21:12.896Z,20.93
2023-04-16T22:23:42.404Z,22.60
2023-04-16T22:26:10.411Z,20.00
2023-04-16T22:28:38.269Z,22.43
2023-04-16T22:31:06.685Z,22.77
2023-04-16T22:33:35.971Z,21.47
2023-04-16T22:36:04.659Z,15.20
2023-04-16T22:38:32.539Z,24.00
2023-04-16T22:41:01.708Z,23.50
2023-04-16T22:43:29.677Z,19.50
2023-04-16T22:46:04.449Z,25.30
2023-04-16T22:48:33.893Z,25.95
2023-04-16T22:51:01.868Z,22.73
2023-04-16T22:53:29.829Z,25.77
2023-04-16T22:55:57.814Z,25.47
2023-04-16T22:58:27.010Z,23.50
2023-04-16T23:00:57.508Z,21.20
2023-04-16T23:03:25.554Z,23.50
2023-04-16T23:05:53.611Z,20.67
2023-04-16T23:08:21.492Z,24.57
2023-04-16T23:10:49.260Z,25.47
2023-04-16T23:13:17.257Z,22.10
2023-04-16T23:15:47.433Z,24.77
2023-04-16T23:18:15.402Z,26.60
2023-04-16T23:20:43.358Z,28.90
2023-04-16T23:23:11.140Z,26.33
2023-04-16T23:25:42.288Z,30.47
2023-04-16T23:28:10.305Z,28.00
2023-04-16T23:30:38.226Z,31.33
2023-04-16T23:33:07.641Z,28.10
2023-04-16T23:35:35.985Z,22.67
2023-04-16T23:38:03.820Z,28.80
2023-04-16T23:40:31.759Z,29.03
2023-04-16T23:42:59.623Z,27.20
2023-04-16T23:45:27.482Z,27.60
2023-04-16T23:47:55.582Z,30.63
2023-04-16T23:50:24.925Z,29.53
2023-04-16T23:52:52.769Z,31.90
2023-04-16T23:55:20.986Z,30.50
2023-04-16T23:57:48.937Z,31.13
